sensor_id;sensor_type;location;lat;lon;timestamp;temperature;humidity
22442;DHT22;11388;54.456;9.752;2023-07-22T02:00:16;15.30;99.90
22442;DHT22;11388;54.456;9.752;2023-07-22T06:18:39;15.40;99.90
22442;DHT22;11388;54.456;9.752;2023-07-22T06:24:09;15.40;99.90
22442;DHT22;11388;54.456;9.752;2023-07-22T06:26:38;15.40;99.90
22442;DHT22;11388;54.456;9.752;2023-07-22T06:37:09;15.60;99.90
22442;DHT22;11388;54.456;9.752;2023-07-22T06:39:34;15.60;99.90
22442;DHT22;11388;54.456;9.752;2023-07-22T06:42:00;15.50;99.90
22442;DHT22;11388;54.456;9.752;2023-07-22T06:44:26;15.50;99.90
22442;DHT22;11388;54.456;9.752;2023-07-22T06:46:51;15.60;99.90
22442;DHT22;11388;54.456;9.752;2023-07-22T06:49:17;15.70;99.90
22442;DHT22;11388;54.456;9.752;2023-07-22T06:51:48;15.80;99.90
22442;DHT22;11388;54.456;9.752;2023-07-22T06:54:14;15.80;99.90
22442;DHT22;11388;54.456;9.752;2023-07-22T06:56:40;16.00;99.90
22442;DHT22;11388;54.456;9.752;2023-07-22T06:59:05;16.20;99.90
22442;DHT22;11388;54.456;9.752;2023-07-22T15:20:53;17.90;99.90
22442;DHT22;11388;54.456;9.752;2023-07-22T15:23:19;17.80;99.90
22442;DHT22;11388;54.456;9.752;2023-07-22T15:26:00;17.90;99.90
22442;DHT22;11388;54.456;9.752;2023-07-22T15:28:26;17.90;99.90
22442;DHT22;11388;54.456;9.752;2023-07-22T15:30:56;17.90;99.90
22442;DHT22;11388;54.456;9.752;2023-07-22T15:33:21;17.90;99.90
22442;DHT22;11388;54.456;9.752;2023-07-22T15:35:48;17.90;99.90
22442;DHT22;11388;54.456;9.752;2023-07-22T15:38:13;17.90;99.90
22442;DHT22;11388;54.456;9.752;2023-07-22T15:40:39;17.90;99.90
22442;DHT22;11388;54.456;9.752;2023-07-22T15:43:05;17.90;99.90
22442;DHT22;11388;54.456;9.752;2023-07-22T15:45:32;17.80;99.90
22442;DHT22;11388;54.456;9.752;2023-07-22T15:53:55;17.90;99.90
22442;DHT22;11388;54.456;9.752;2023-07-22T15:56:21;17.80;99.90
22442;DHT22;11388;54.456;9.752;2023-07-22T15:58:47;17.80;99.90
22442;DHT22;11388;54.456;9.752;2023-07-22T16:01:31;17.90;99.90
22442;DHT22;11388;54.456;9.752;2023-07-22T16:03:57;18.00;99.90
22442;DHT22;11388;54.456;9.752;2023-07-22T16:06:25;17.90;99.90
22442;DHT22;11388;54.456;9.752;2023-07-22T16:08:55;18.00;99.90
22442;DHT22;11388;54.456;9.752;2023-07-22T16:11:21;17.90;99.90
22442;DHT22;11388;54.456;9.752;2023-07-22T16:13:47;17.90;99.90
22442;DHT22;11388;54.456;9.752;2023-07-22T16:19:29;17.80;99.90
22442;DHT22;11388;54.456;9.752;2023-07-22T16:22:05;17.70;99.90
22442;DHT22;11388;54.456;9.752;2023-07-22T16:24:50;17.70;99.90
22442;DHT22;11388;54.456;9.752;2023-07-22T16:27:28;17.80;99.90
22442;DHT22;11388;54.456;9.752;2023-07-22T16:29:54;17.90;99.90
22442;DHT22;11388;54.456;9.752;2023-07-22T16:43:11;17.80;99.90
22442;DHT22;11388;54.456;9.752;2023-07-22T16:45:37;17.90;99.90
22442;DHT22;11388;54.456;9.752;2023-07-22T16:48:07;17.90;99.90
22442;DHT22;11388;54.456;9.752;2023-07-22T16:50:35;17.90;99.90
22442;DHT22;11388;54.456;9.752;2023-07-22T16:53:01;17.80;99.90
22442;DHT22;11388;54.456;9.752;2023-07-22T16:55:29;17.70;99.90
22442;DHT22;11388;54.456;9.752;2023-07-22T16:57:57;17.60;99.90
22442;DHT22;11388;54.456;9.752;2023-07-22T17:00:24;17.60;99.90
22442;DHT22;11388;54.456;9.752;2023-07-22T17:02:50;17.70;99.90
22442;DHT22;11388;54.456;9.752;2023-07-22T17:05:16;17.70;99.90
22442;DHT22;11388;54.456;9.752;2023-07-22T17:07:41;17.70;99.90
22442;DHT22;11388;54.456;9.752;2023-07-22T17:10:08;17.80;99.90
22442;DHT22;11388;54.456;9.752;2023-07-22T17:12:34;17.80;99.90
22442;DHT22;11388;54.456;9.752;2023-07-22T17:15:03;17.70;99.90
22442;DHT22;11388;54.456;9.752;2023-07-22T17:17:29;17.70;99.90
22442;DHT22;11388;54.456;9.752;2023-07-22T17:19:55;17.60;99.90
22442;DHT22;11388;54.456;9.752;2023-07-22T17:22:21;17.60;99.90
22442;DHT22;11388;54.456;9.752;2023-07-22T17:24:47;17.50;99.90
22442;DHT22;11388;54.456;9.752;2023-07-22T17:27:12;17.60;99.90
22442;DHT22;11388;54.456;9.752;2023-07-22T17:29:38;17.50;99.90
22442;DHT22;11388;54.456;9.752;2023-07-22T17:32:04;17.60;99.90
22442;DHT22;11388;54.456;9.752;2023-07-22T17:34:30;17.60;99.90
22442;DHT22;11388;54.456;9.752;2023-07-22T17:36:55;17.60;99.90
22442;DHT22;11388;54.456;9.752;2023-07-22T17:39:21;17.60;99.90
22442;DHT22;11388;54.456;9.752;2023-07-22T17:41:47;17.60;99.90
22442;DHT22;11388;54.456;9.752;2023-07-22T17:49:29;17.60;99.90
22442;DHT22;11388;54.456;9.752;2023-07-22T17:56:03;17.40;99.90
22442;DHT22;11388;54.456;9.752;2023-07-22T17:58:43;17.40;99.90
22442;DHT22;11388;54.456;9.752;2023-07-22T18:11:33;17.40;99.90
22442;DHT22;11388;54.456;9.752;2023-07-22T18:14:23;17.40;99.90
22442;DHT22;11388;54.456;9.752;2023-07-22T18:16:49;17.40;99.90
22442;DHT22;11388;54.456;9.752;2023-07-22T18:19:17;17.40;99.90
22442;DHT22;11388;54.456;9.752;2023-07-22T18:21:49;17.50;99.90
22442;DHT22;11388;54.456;9.752;2023-07-22T18:24:24;17.40;99.90
22442;DHT22;11388;54.456;9.752;2023-07-22T18:26:54;17.30;99.90
22442;DHT22;11388;54.456;9.752;2023-07-22T18:29:23;17.30;99.90
22442;DHT22;11388;54.456;9.752;2023-07-22T18:31:57;17.40;99.90
22442;DHT22;11388;54.456;9.752;2023-07-22T18:41:15;17.40;99.90
22442;DHT22;11388;54.456;9.752;2023-07-22T18:47:32;17.40;99.90
22442;DHT22;11388;54.456;9.752;2023-07-22T19:00:53;17.30;99.90
22442;DHT22;11388;54.456;9.752;2023-07-22T19:03:42;17.30;99.90
22442;DHT22;11388;54.456;9.752;2023-07-22T19:09:37;17.20;99.90
22442;DHT22;11388;54.456;9.752;2023-07-22T19:12:54;17.20;99.90
22442;DHT22;11388;54.456;9.752;2023-07-22T19:22:26;17.10;99.90
22442;DHT22;11388;54.456;9.752;2023-07-22T19:25:21;17.20;99.90
22442;DHT22;11388;54.456;9.752;2023-07-22T22:08:44;16.10;99.90
22442;DHT22;11388;54.456;9.752;2023-07-22T22:11:21;16.10;99.90
22442;DHT22;11388;54.456;9.752;2023-07-22T22:13:50;16.00;99.90
22442;DHT22;11388;54.456;9.752;2023-07-22T22:16:39;16.00;99.90
22442;DHT22;11388;54.456;9.752;2023-07-22T22:22:45;16.10;99.90
22442;DHT22;11388;54.456;9.752;2023-07-22T22:25:39;16.10;99.90
22442;DHT22;11388;54.456;9.752;2023-07-22T22:35:52;16.10;99.90
22442;DHT22;11388;54.456;9.752;2023-07-22T22:42:15;16.10;99.90
22442;DHT22;11388;54.456;9.752;2023-07-22T22:45:07;16.10;99.90
22442;DHT22;11388;54.456;9.752;2023-07-22T22:47:38;16.10;99.90
22442;DHT22;11388;54.456;9.752;2023-07-22T22:50:06;16.10;99.90
22442;DHT22;11388;54.456;9.752;2023-07-22T22:52:37;16.10;99.90
22442;DHT22;11388;54.456;9.752;2023-07-22T22:55:06;16.20;99.90
22442;DHT22;11388;54.456;9.752;2023-07-22T22:57:38;16.30;99.90
22442;DHT22;11388;54.456;9.752;2023-07-22T23:00:27;16.30;99.90
22442;DHT22;11388;54.456;9.752;2023-07-22T23:03:08;16.10;99.90
22442;DHT22;11388;54.456;9.752;2023-07-22T23:05:42;16.10;99.90
22442;DHT22;11388;54.456;9.752;2023-07-22T23:08:15;16.00;99.90
22442;DHT22;11388;54.456;9.752;2023-07-22T23:10:47;16.00;99.90
22442;DHT22;11388;54.456;9.752;2023-07-22T23:13:38;16.00;99.90
22442;DHT22;11388;54.456;9.752;2023-07-22T23:19:37;16.00;99.90
22442;DHT22;11388;54.456;9.752;2023-07-22T23:22:39;16.00;99.90
22442;DHT22;11388;54.456;9.752;2023-07-22T23:25:28;16.00;99.90
22442;DHT22;11388;54.456;9.752;2023-07-22T23:28:00;16.00;99.90
22442;DHT22;11388;54.456;9.752;2023-07-22T23:30:36;16.00;99.90
22442;DHT22;11388;54.456;9.752;2023-07-22T23:36:15;15.90;99.90
22442;DHT22;11388;54.456;9.752;2023-07-22T23:39:08;15.90;99.90
22442;DHT22;11388;54.456;9.752;2023-07-22T23:41:44;15.90;99.90
22442;DHT22;11388;54.456;9.752;2023-07-22T23:44:18;15.90;99.90
22442;DHT22;11388;54.456;9.752;2023-07-22T23:46:57;15.90;99.90
22442;DHT22;11388;54.456;9.752;2023-07-22T23:49:57;15.90;99.90
22442;DHT22;11388;54.456;9.752;2023-07-22T23:52:26;15.80;99.90
22442;DHT22;11388;54.456;9.752;2023-07-22T23:55:06;15.80;99.90
22442;DHT22;11388;54.456;9.752;2023-07-22T23:57:35;15.90;99.90
